Time;durP1;ratioP1;P1;durP2;ratioP2;P2;SDS_P1;SDS_P2;PMS_P1;PMS_P2;Temp;Humidity;BMP_temperature;BMP_pressure;BME280_temperature;BME280_humidity;BME280_pressure;Samples;Min_cycle;Max_cycle;Signal;HPM_P1;HPM_P2
2023/05/28 00:01:04;;;;;;;6.67;4.80;;;19.80;54.30;;;;;;5016260;28;20461;-84
2023/05/28 00:03:35;;;;;;;5.53;4.23;;;19.70;54.30;;;;;;5010361;28;21033;-84
2023/05/28 00:06:05;;;;;;;5.73;4.37;;;19.50;54.50;;;;;;5010554;28;20458;-83
2023/05/28 00:09:10;;;;;;;6.47;4.90;;;19.60;54.00;;;;;;5010380;28;20458;-84
2023/05/28 00:11:40;;;;;;;5.63;5.10;;;19.40;54.10;;;;;;5022959;28;20884;-83
2023/05/28 00:14:11;;;;;;;8.23;5.33;;;19.30;55.10;;;;;;5004589;28;20492;-84
2023/05/28 00:16:44;;;;;;;5.73;4.60;;;19.40;55.70;;;;;;5009104;28;20509;-84
2023/05/28 00:19:16;;;;;;;6.93;5.10;;;19.30;56.50;;;;;;5011616;28;20450;-84
2023/05/28 00:21:44;;;;;;;8.07;5.93;;;19.30;57.10;;;;;;5006439;28;20454;-84
2023/05/28 00:24:13;;;;;;;7.30;5.33;;;19.20;56.70;;;;;;5008443;28;20481;-83
2023/05/28 00:26:44;;;;;;;6.97;4.83;;;19.10;57.10;;;;;;5009883;28;20470;-82
2023/05/28 00:29:15;;;;;;;5.57;4.63;;;19.10;56.50;;;;;;5030615;28;20462;-84
2023/05/28 00:31:45;;;;;;;7.00;4.37;;;19.20;55.40;;;;;;5035638;28;20434;-82
2023/05/28 00:34:14;;;;;;;6.10;4.73;;;19.10;54.90;;;;;;5035354;28;20522;-82
2023/05/28 00:36:54;;;;;;;9.33;4.90;;;18.90;55.40;;;;;;5037237;28;20454;-83
2023/05/28 00:39:40;;;;;;;7.00;4.87;;;18.80;56.20;;;;;;5035865;28;20469;-81
2023/05/28 00:42:43;;;;;;;6.13;4.40;;;18.70;56.60;;;;;;5030428;28;20452;-82
2023/05/28 00:45:14;;;;;;;6.33;5.00;;;18.70;56.50;;;;;;5010458;28;20545;-83
2023/05/28 00:47:53;;;;;;;7.00;4.17;;;18.80;55.80;;;;;;5003791;28;20556;-83
2023/05/28 00:50:28;;;;;;;4.90;3.90;;;18.70;56.00;;;;;;5004664;28;21288;-80
2023/05/28 00:53:23;;;;;;;6.30;4.60;;;18.70;56.20;;;;;;5012034;28;20826;-82
2023/05/28 00:55:56;;;;;;;5.30;4.40;;;18.80;55.70;;;;;;5002451;28;20474;-83
2023/05/28 00:58:34;;;;;;;6.33;4.37;;;18.60;55.90;;;;;;5013650;28;20462;-85
2023/05/28 01:01:13;;;;;;;5.73;4.13;;;18.50;56.20;;;;;;5013060;28;20494;-85
2023/05/28 01:03:44;;;;;;;6.27;4.70;;;18.50;56.80;;;;;;5013513;28;20496;-85
2023/05/28 01:06:28;;;;;;;4.80;4.30;;;18.60;56.70;;;;;;5011453;28;20490;-84
2023/05/28 01:09:09;;;;;;;5.40;4.10;;;18.50;57.40;;;;;;5002556;28;20545;-83
2023/05/28 01:11:43;;;;;;;5.20;4.33;;;18.40;58.10;;;;;;5007654;28;20485;-84
2023/05/28 01:14:27;;;;;;;5.53;4.83;;;18.30;57.80;;;;;;5011113;28;20512;-84
2023/05/28 01:17:02;;;;;;;8.70;4.37;;;18.30;56.90;;;;;;5006697;28;20517;-83
2023/05/28 01:19:31;;;;;;;5.10;4.60;;;18.20;57.70;;;;;;5008711;28;20477;-84
2023/05/28 01:22:04;;;;;;;5.97;4.50;;;18.20;58.30;;;;;;5006650;28;20462;-85
2023/05/28 01:24:39;;;;;;;5.13;4.60;;;18.20;58.50;;;;;;5004888;28;20544;-83
2023/05/28 01:27:57;;;;;;;6.53;4.20;;;18.20;58.40;;;;;;5006804;28;20482;-84
2023/05/28 01:30:32;;;;;;;5.53;4.10;;;18.10;58.30;;;;;;5003183;28;20494;-84
2023/05/28 01:33:01;;;;;;;4.83;3.60;;;18.20;59.00;;;;;;5005733;28;20454;-83
2023/05/28 01:35:28;;;;;;;5.30;4.50;;;18.30;58.50;;;;;;5019339;28;20868;-84
2023/05/28 01:38:02;;;;;;;6.50;4.17;;;18.20;58.70;;;;;;5000600;28;20493;-85
2023/05/28 01:40:37;;;;;;;5.80;4.40;;;18.00;58.80;;;;;;5006717;28;20458;-83
2023/05/28 01:43:07;;;;;;;5.10;4.40;;;17.90;59.30;;;;;;5008697;28;20462;-83
2023/05/28 01:45:36;;;;;;;6.43;4.20;;;17.80;59.80;;;;;;5008301;28;20509;-83
2023/05/28 01:48:03;;;;;;;6.20;4.83;;;18.00;60.00;;;;;;5006464;28;20460;-84
2023/05/28 01:50:32;;;;;;;7.30;4.83;;;18.00;59.50;;;;;;5005864;28;20466;-83
2023/05/28 01:53:02;;;;;;;5.73;4.43;;;17.90;59.40;;;;;;4998202;28;20463;-82
2023/05/28 01:55:32;;;;;;;6.07;4.23;;;17.80;59.70;;;;;;5009338;28;20483;-84
2023/05/28 01:58:02;;;;;;;4.70;4.20;;;17.90;59.90;;;;;;5009216;28;20485;-83
2023/05/28 02:00:37;;;;;;;7.53;5.37;;;18.00;60.20;;;;;;5008226;28;20450;-83
2023/05/28 02:03:17;;;;;;;5.57;5.03;;;17.90;60.60;;;;;;5007903;28;20504;-84
2023/05/28 02:05:46;;;;;;;7.53;4.57;;;17.70;61.00;;;;;;5006919;28;22275;-84
2023/05/28 02:08:15;;;;;;;6.27;5.23;;;17.60;61.90;;;;;;5005352;28;20487;-83
2023/05/28 02:10:56;;;;;;;7.00;4.80;;;17.60;62.60;;;;;;5007879;28;20753;-81
2023/05/28 02:13:23;;;;;;;6.60;5.03;;;17.60;62.80;;;;;;5025514;28;20454;-81
2023/05/28 02:15:52;;;;;;;5.20;4.50;;;17.70;63.20;;;;;;5030219;28;20474;-83
2023/05/28 02:18:20;;;;;;;5.43;4.60;;;17.70;63.60;;;;;;5029664;28;20505;-82
2023/05/28 02:20:50;;;;;;;4.83;4.23;;;17.70;64.10;;;;;;5032984;28;20450;-83
2023/05/28 02:23:19;;;;;;;6.43;4.83;;;17.50;64.90;;;;;;5029830;28;20455;-82
2023/05/28 02:25:51;;;;;;;4.70;4.20;;;17.30;66.00;;;;;;5033490;28;20480;-85
2023/05/28 02:28:27;;;;;;;7.10;4.77;;;17.20;67.60;;;;;;5019604;28;20459;-84
2023/05/28 02:30:59;;;;;;;5.40;4.27;;;17.30;67.40;;;;;;5012966;28;20454;-83
2023/05/28 02:33:32;;;;;;;6.90;5.20;;;17.40;68.40;;;;;;5001809;28;20452;-86
2023/05/28 02:36:13;;;;;;;8.57;4.60;;;17.30;68.20;;;;;;5022903;28;20454;-83
2023/05/28 02:38:43;;;;;;;6.93;4.93;;;17.30;68.20;;;;;;5030545;28;20466;-83
2023/05/28 02:41:22;;;;;;;5.33;4.27;;;17.20;68.60;;;;;;5031895;28;20510;-82
2023/05/28 02:44:01;;;;;;;6.47;4.90;;;17.10;69.30;;;;;;5027492;28;20509;-86
2023/05/28 02:46:28;;;;;;;8.10;5.20;;;17.10;68.90;;;;;;5027042;28;20463;-86
2023/05/28 02:49:01;;;;;;;6.07;4.70;;;17.10;69.80;;;;;;5011767;28;20489;-86
2023/05/28 02:51:37;;;;;;;6.07;4.53;;;17.10;70.70;;;;;;5018656;28;20819;-86
2023/05/28 02:54:05;;;;;;;7.13;4.43;;;17.10;70.60;;;;;;5015038;28;20464;-85
2023/05/28 02:56:34;;;;;;;5.83;4.67;;;17.10;71.40;;;;;;5018648;28;21113;-87
2023/05/28 02:59:04;;;;;;;6.17;5.03;;;17.00;71.30;;;;;;5008244;28;20459;-86
2023/05/28 03:01:51;;;;;;;4.90;4.20;;;16.80;71.50;;;;;;5009453;28;20490;-85
2023/05/28 03:04:30;;;;;;;5.20;4.60;;;16.70;72.20;;;;;;5015013;28;20493;-85
2023/05/28 03:07:10;;;;;;;7.17;5.30;;;16.70;73.10;;;;;;5025927;28;20471;-85
2023/05/28 03:09:46;;;;;;;7.50;5.20;;;16.70;74.30;;;;;;5007229;28;20462;-84
2023/05/28 03:12:28;;;;;;;6.13;4.50;;;16.70;74.10;;;;;;5008069;28;20505;-85
2023/05/28 03:15:03;;;;;;;6.80;4.83;;;16.60;74.70;;;;;;5008794;28;20446;-84
2023/05/28 03:17:40;;;;;;;5.90;5.00;;;16.50;75.30;;;;;;5007307;28;20469;-86
2023/05/28 03:20:34;;;;;;;7.13;4.60;;;16.50;76.30;;;;;;5013840;28;20450;-86
2023/05/28 03:23:08;;;;;;;6.33;4.77;;;16.60;76.20;;;;;;5004933;28;20450;-85
2023/05/28 03:25:42;;;;;;;6.70;4.43;;;16.50;75.00;;;;;;5017001;28;20489;-85
2023/05/28 03:28:13;;;;;;;7.80;5.13;;;16.40;76.90;;;;;;5003730;28;20506;-87
2023/05/28 03:30:44;;;;;;;8.30;4.90;;;16.30;78.30;;;;;;5016584;28;20439;-83
2023/05/28 03:33:19;;;;;;;6.67;5.07;;;16.40;78.80;;;;;;5021768;28;20438;-83
2023/05/28 03:36:06;;;;;;;6.20;4.10;;;16.50;79.00;;;;;;5009061;28;20454;-86
2023/05/28 03:38:39;;;;;;;9.03;4.27;;;16.50;78.80;;;;;;5012629;28;20485;-85
2023/05/28 03:41:16;;;;;;;6.60;4.90;;;16.40;79.10;;;;;;5027783;28;20438;-82
2023/05/28 03:43:52;;;;;;;4.77;4.33;;;16.40;78.90;;;;;;5030838;28;20679;-85
2023/05/28 03:46:23;;;;;;;6.50;4.23;;;16.50;77.60;;;;;;5015182;28;20481;-83
2023/05/28 03:49:06;;;;;;;4.73;4.20;;;16.40;77.00;;;;;;5014645;28;20512;-85
2023/05/28 03:51:48;;;;;;;5.63;4.40;;;16.50;75.20;;;;;;5007112;28;20459;-82
2023/05/28 03:54:16;;;;;;;5.90;4.37;;;16.50;74.80;;;;;;5009111;28;21194;-84
2023/05/28 03:56:49;;;;;;;6.27;4.60;;;16.40;75.50;;;;;;5012406;28;21045;-83
2023/05/28 03:59:30;;;;;;;6.10;4.73;;;16.40;75.60;;;;;;5011531;28;20875;-85
2023/05/28 04:02:01;;;;;;;6.97;4.27;;;16.40;76.00;;;;;;5014587;28;20545;-85
2023/05/28 04:04:33;;;;;;;7.50;4.30;;;16.50;77.00;;;;;;5014000;28;20481;-84
2023/05/28 04:07:20;;;;;;;6.33;4.00;;;16.60;76.30;;;;;;5007755;28;20488;-83
2023/05/28 04:09:53;;;;;;;4.90;4.20;;;16.50;76.20;;;;;;5005728;28;20449;-84
2023/05/28 04:12:22;;;;;;;4.93;4.47;;;16.40;76.40;;;;;;5013434;28;20525;-83
2023/05/28 04:14:52;;;;;;;6.70;4.80;;;16.40;76.80;;;;;;5011860;28;21224;-85
2023/05/28 04:17:27;;;;;;;6.77;4.67;;;16.40;76.30;;;;;;5014655;28;20497;-83
2023/05/28 04:19:59;;;;;;;8.37;4.80;;;16.40;76.20;;;;;;5004615;28;20546;-84
2023/05/28 04:22:31;;;;;;;7.53;4.67;;;16.20;77.20;;;;;;5016730;28;20450;-86
2023/05/28 04:25:05;;;;;;;8.60;4.20;;;16.20;78.30;;;;;;5015545;28;20509;-85
2023/05/28 04:27:36;;;;;;;11.57;5.07;;;16.00;79.00;;;;;;5012009;28;21345;-84
2023/05/28 04:30:08;;;;;;;5.13;4.03;;;16.00;79.60;;;;;;5015114;28;20457;-84
2023/05/28 04:32:39;;;;;;;5.80;4.30;;;16.00;80.90;;;;;;5013423;28;20956;-85
2023/05/28 04:35:14;;;;;;;5.80;4.60;;;16.00;81.20;;;;;;5009415;28;20533;-85
2023/05/28 04:37:53;;;;;;;8.90;4.63;;;16.10;81.80;;;;;;5014709;28;20558;-87
2023/05/28 04:40:22;;;;;;;7.03;4.93;;;16.10;81.90;;;;;;5014069;28;21013;-84
2023/05/28 04:42:55;;;;;;;7.43;4.50;;;16.20;81.60;;;;;;5009793;28;20892;-85
2023/05/28 04:45:24;;;;;;;7.27;4.50;;;16.20;81.80;;;;;;5013459;28;20491;-86
2023/05/28 04:47:53;;;;;;;5.40;4.70;;;16.10;82.30;;;;;;5015777;28;20474;-84
2023/05/28 04:50:23;;;;;;;5.30;4.77;;;16.00;83.10;;;;;;5010143;28;20458;-86
2023/05/28 04:52:53;;;;;;;6.33;4.30;;;15.90;84.10;;;;;;5016205;28;20463;-84
2023/05/28 04:55:20;;;;;;;6.23;3.90;;;16.00;84.10;;;;;;5024866;28;20470;-83
2023/05/28 04:57:52;;;;;;;7.23;4.37;;;16.00;82.80;;;;;;5027495;28;20458;-83
2023/05/28 05:00:26;;;;;;;5.83;4.70;;;16.20;82.80;;;;;;5034599;28;20470;-82
2023/05/28 05:02:54;;;;;;;4.90;4.37;;;16.10;82.00;;;;;;5035845;28;20520;-81
2023/05/28 05:05:43;;;;;;;8.87;4.33;;;16.30;79.80;;;;;;5035670;28;20478;-83
2023/05/28 05:08:13;;;;;;;8.03;4.20;;;16.30;78.10;;;;;;5025385;28;20448;-84
2023/05/28 05:10:42;;;;;;;4.33;3.93;;;16.30;77.30;;;;;;5032528;28;20442;-82
2023/05/28 05:13:12;;;;;;;5.30;4.30;;;16.30;76.90;;;;;;5032884;28;20460;-83
2023/05/28 05:15:46;;;;;;;6.33;4.13;;;16.40;76.90;;;;;;5029116;28;20494;-83
2023/05/28 05:18:14;;;;;;;5.57;4.33;;;16.40;79.20;;;;;;5019139;28;20462;-83
2023/05/28 05:20:41;;;;;;;6.10;4.37;;;16.40;79.40;;;;;;5007523;28;20550;-83
2023/05/28 05:23:13;;;;;;;5.57;4.40;;;16.60;79.10;;;;;;5013472;28;20461;-85
2023/05/28 05:25:43;;;;;;;5.90;4.33;;;16.70;78.30;;;;;;5014873;28;20513;-84
2023/05/28 05:28:18;;;;;;;6.70;4.43;;;16.90;77.20;;;;;;5008584;28;20454;-85
2023/05/28 05:30:52;;;;;;;5.47;3.83;;;16.80;76.70;;;;;;5015675;28;20498;-85
2023/05/28 05:33:19;;;;;;;6.93;3.80;;;16.70;77.80;;;;;;5010150;28;20530;-86
2023/05/28 05:35:48;;;;;;;5.77;4.00;;;16.80;77.00;;;;;;5009067;28;20561;-86
2023/05/28 05:38:24;;;;;;;5.70;3.97;;;16.70;75.80;;;;;;5015016;28;20526;-85
2023/05/28 05:40:51;;;;;;;8.53;4.30;;;16.60;76.10;;;;;;5011991;28;20458;-85
2023/05/28 05:43:25;;;;;;;4.47;3.87;;;16.80;76.20;;;;;;5017160;28;20468;-83
2023/05/28 05:45:57;;;;;;;5.47;4.17;;;16.90;74.80;;;;;;5023093;28;20502;-83
2023/05/28 05:48:30;;;;;;;6.43;4.03;;;16.90;74.30;;;;;;5016396;28;20452;-83
2023/05/28 05:51:02;;;;;;;5.13;4.27;;;16.80;74.50;;;;;;5011370;28;20450;-85
2023/05/28 05:53:41;;;;;;;7.00;4.20;;;16.70;74.70;;;;;;5006107;28;20486;-84
2023/05/28 05:56:11;;;;;;;6.90;4.30;;;16.90;74.50;;;;;;5000116;28;20483;-84
2023/05/28 05:58:45;;;;;;;5.10;4.17;;;16.90;74.20;;;;;;5009959;28;20473;-84
2023/05/28 06:01:18;;;;;;;7.10;4.10;;;17.00;74.50;;;;;;5006938;28;20577;-83
2023/05/28 06:03:47;;;;;;;7.07;4.60;;;17.00;74.50;;;;;;5022798;28;20470;-86
2023/05/28 06:06:16;;;;;;;6.60;4.80;;;17.10;74.40;;;;;;5011310;28;20491;-85
2023/05/28 06:08:49;;;;;;;4.50;3.90;;;17.50;73.80;;;;;;5003646;28;20489;-84
2023/05/28 06:11:19;;;;;;;5.40;4.10;;;17.70;72.60;;;;;;5008279;28;20585;-85
2023/05/28 06:13:56;;;;;;;5.60;3.60;;;17.70;72.10;;;;;;5000765;28;20451;-85
2023/05/28 06:16:28;;;;;;;6.10;4.43;;;17.70;71.40;;;;;;5005111;28;20516;-86
2023/05/28 06:19:05;;;;;;;6.20;4.57;;;17.60;72.40;;;;;;5008698;28;20495;-84
2023/05/28 06:21:36;;;;;;;6.23;3.57;;;17.50;72.80;;;;;;5009649;28;20463;-85
2023/05/28 06:24:06;;;;;;;6.70;4.20;;;17.70;72.00;;;;;;5001383;28;20497;-85
2023/05/28 06:26:39;;;;;;;7.83;3.77;;;17.80;71.60;;;;;;5007252;28;20519;-84
2023/05/28 06:29:09;;;;;;;4.47;3.37;;;17.60;71.40;;;;;;5008980;28;20489;-86
2023/05/28 06:31:40;;;;;;;7.60;4.40;;;17.70;72.00;;;;;;5009496;28;20883;-84
2023/05/28 06:34:10;;;;;;;6.40;3.43;;;17.90;71.90;;;;;;5009843;28;20537;-86
2023/05/28 06:36:42;;;;;;;5.40;3.93;;;18.00;71.20;;;;;;5005460;28;20486;-84
2023/05/28 06:39:15;;;;;;;6.03;3.97;;;18.20;70.00;;;;;;5001684;28;20455;-85
2023/05/28 06:41:55;;;;;;;5.43;3.50;;;18.40;69.90;;;;;;5006236;28;20463;-84
2023/05/28 06:44:26;;;;;;;5.23;4.07;;;18.30;69.80;;;;;;5024271;28;20489;-86
2023/05/28 06:46:58;;;;;;;4.70;3.37;;;18.10;69.10;;;;;;5028606;28;20485;-85
2023/05/28 06:49:29;;;;;;;4.50;3.63;;;18.30;69.80;;;;;;5019654;28;20462;-85
2023/05/28 06:52:00;;;;;;;5.93;4.20;;;18.40;68.80;;;;;;5016664;28;20557;-85
2023/05/28 06:54:29;;;;;;;6.27;4.00;;;18.50;68.70;;;;;;5014765;28;20450;-86
2023/05/28 06:56:58;;;;;;;9.63;3.77;;;18.40;68.60;;;;;;5011232;28;20487;-85
2023/05/28 06:59:30;;;;;;;5.00;4.23;;;18.70;67.80;;;;;;5010882;28;20480;-85
2023/05/28 07:02:00;;;;;;;5.30;4.00;;;18.70;67.80;;;;;;5008158;28;20953;-84
2023/05/28 07:04:33;;;;;;;4.60;3.93;;;18.80;67.90;;;;;;5009748;28;20447;-86
2023/05/28 07:07:13;;;;;;;5.80;4.07;;;18.60;68.00;;;;;;5016272;28;20521;-83
2023/05/28 07:09:45;;;;;;;9.50;4.50;;;18.70;68.40;;;;;;5007547;28;20454;-84
2023/05/28 07:12:25;;;;;;;5.23;4.27;;;19.00;68.80;;;;;;5010657;28;20545;-86
2023/05/28 07:15:06;;;;;;;5.50;4.07;;;19.50;67.90;;;;;;5026881;28;20502;-83
2023/05/28 07:17:40;;;;;;;5.70;4.07;;;19.60;67.70;;;;;;5002699;28;20993;-84
2023/05/28 07:20:16;;;;;;;5.30;4.30;;;19.30;67.50;;;;;;5010119;28;20845;-84
2023/05/28 07:23:02;;;;;;;6.93;4.30;;;19.30;68.60;;;;;;5012222;28;20541;-85
2023/05/28 07:25:32;;;;;;;4.97;3.50;;;19.30;67.80;;;;;;5004447;28;20963;-84
2023/05/28 07:28:18;;;;;;;4.73;3.73;;;19.30;68.00;;;;;;5012026;28;20469;-85
2023/05/28 07:30:51;;;;;;;5.47;3.63;;;19.80;66.40;;;;;;5008522;28;20517;-83
2023/05/28 07:33:31;;;;;;;5.23;3.90;;;19.90;64.50;;;;;;5006437;28;20492;-85
2023/05/28 07:36:18;;;;;;;3.87;3.57;;;20.00;63.70;;;;;;5012887;28;20476;-85
2023/05/28 07:39:05;;;;;;;5.37;3.03;;;20.20;61.90;;;;;;5012530;28;20502;-84
2023/05/28 07:41:52;;;;;;;3.93;3.30;;;20.20;60.40;;;;;;5007685;28;20461;-83
2023/05/28 07:44:45;;;;;;;5.80;3.17;;;20.30;61.20;;;;;;5016089;28;20454;-85
2023/05/28 07:47:35;;;;;;;7.57;4.20;;;20.40;60.50;;;;;;4997480;28;20573;-84
2023/05/28 07:53:52;;;;;;;6.13;3.63;;;20.50;60.20;;;;;;5018611;28;20957;-84
2023/05/28 08:00:11;;;;;;;4.10;3.30;;;20.60;58.90;;;;;;5015798;28;20478;-85
2023/05/28 08:02:55;;;;;;;4.67;3.53;;;20.80;58.60;;;;;;5013743;28;20794;-85
2023/05/28 08:06:08;;;;;;;6.00;4.00;;;20.90;58.60;;;;;;4955956;28;20982;-83
2023/05/28 08:09:41;;;;;;;6.17;3.93;;;21.30;58.40;;;;;;4964383;28;20472;-83
2023/05/28 08:12:33;;;;;;;5.00;3.80;;;21.30;59.30;;;;;;4950942;28;20465;-85
2023/05/28 08:15:19;;;;;;;;;;;;;;;;;;;;;
2023/05/28 08:18:02;;;;;;;4.27;3.70;;;21.90;56.60;;;;;;4958169;28;20559;-86
2023/05/28 08:20:41;;;;;;;9.13;4.43;;;22.10;56.60;;;;;;4980340;28;21059;-86
2023/05/28 08:23:34;;;;;;;7.13;3.20;;;22.80;55.90;;;;;;4959374;28;20481;-84
2023/05/28 08:26:12;;;;;;;7.00;4.40;;;22.70;55.40;;;;;;4943272;28;20496;-85
2023/05/28 08:28:46;;;;;;;4.50;3.40;;;22.50;54.60;;;;;;4960624;28;20486;-83
2023/05/28 08:31:16;;;;;;;4.30;3.80;;;22.90;54.70;;;;;;4959901;28;20599;-83
2023/05/28 08:33:51;;;;;;;6.03;3.83;;;23.00;53.60;;;;;;4963023;28;20464;-81
2023/05/28 08:36:53;;;;;;;7.53;3.83;;;23.30;53.80;;;;;;4961449;28;20488;-83
2023/05/28 08:39:31;;;;;;;5.13;3.40;;;23.90;52.70;;;;;;4960402;28;20460;-84
2023/05/28 08:42:06;;;;;;;4.50;3.50;;;24.30;51.80;;;;;;4973602;28;20508;-83
2023/05/28 08:44:48;;;;;;;5.27;4.07;;;25.40;50.20;;;;;;5024392;28;20446;-86
2023/05/28 08:47:25;;;;;;;5.70;4.03;;;26.60;47.70;;;;;;5012332;28;20477;-84
2023/05/28 08:50:04;;;;;;;7.43;3.90;;;26.50;46.50;;;;;;5023214;28;20446;-84
2023/05/28 08:52:48;;;;;;;5.63;3.30;;;26.50;46.60;;;;;;5019140;28;20457;-86
2023/05/28 08:55:17;;;;;;;3.70;2.80;;;26.70;45.20;;;;;;5021017;28;20477;-83
2023/05/28 08:57:55;;;;;;;3.40;2.80;;;26.50;46.10;;;;;;5021926;28;20458;-86
2023/05/28 09:00:40;;;;;;;3.47;3.17;;;27.00;45.10;;;;;;5011149;28;20455;-86
2023/05/28 09:03:29;;;;;;;4.90;3.00;;;27.50;43.90;;;;;;5014756;28;20538;-86
2023/05/28 09:06:06;;;;;;;3.90;2.80;;;28.90;42.00;;;;;;5016290;28;20474;-86
2023/05/28 09:09:10;;;;;;;4.13;3.10;;;30.30;38.90;;;;;;5012585;28;20519;-86
2023/05/28 09:12:01;;;;;;;3.33;3.03;;;30.90;37.60;;;;;;5021227;28;20543;-84
2023/05/28 09:14:59;;;;;;;2.97;2.70;;;32.20;36.00;;;;;;5011246;28;20461;-84
2023/05/28 09:18:04;;;;;;;2.63;2.43;;;32.10;35.10;;;;;;5009562;28;20464;-85
2023/05/28 09:20:40;;;;;;;3.07;2.50;;;32.70;35.10;;;;;;5005079;28;20461;-85
2023/05/28 09:23:16;;;;;;;2.97;2.67;;;32.60;34.50;;;;;;5008775;28;20453;-85
2023/05/28 09:26:24;;;;;;;3.40;2.50;;;33.20;33.80;;;;;;5056141;22;21198;-86
2023/05/28 09:29:13;;;;;;;2.83;2.43;;;33.50;32.80;;;;;;5030894;28;21059;-86
2023/05/28 09:32:07;;;;;;;3.43;2.70;;;32.80;32.60;;;;;;5031797;28;20446;-86
2023/05/28 09:34:57;;;;;;;3.43;3.13;;;32.40;32.70;;;;;;5033386;28;20449;-85
2023/05/28 09:37:36;;;;;;;4.50;2.90;;;32.20;32.80;;;;;;5033886;28;21083;-86
2023/05/28 09:40:27;;;;;;;2.03;1.83;;;33.30;32.00;;;;;;5040997;28;20484;-85
2023/05/28 09:42:57;;;;;;;2.63;2.20;;;33.80;31.40;;;;;;5047917;28;20455;-84
2023/05/28 09:45:46;;;;;;;3.30;2.50;;;34.20;31.60;;;;;;5040668;28;20470;-83
2023/05/28 09:48:25;;;;;;;2.93;2.73;;;34.10;30.70;;;;;;5038445;28;20445;-84
2023/05/28 09:51:20;;;;;;;3.13;2.73;;;34.20;30.80;;;;;;5047104;28;20500;-84
2023/05/28 09:54:06;;;;;;;5.23;2.87;;;34.00;31.00;;;;;;5043409;28;20524;-81
2023/05/28 09:56:40;;;;;;;2.90;2.57;;;33.90;30.70;;;;;;5050904;28;20572;-83
2023/05/28 09:59:32;;;;;;;3.73;2.80;;;33.80;30.10;;;;;;5062741;28;20437;-84
2023/05/28 10:02:23;;;;;;;4.27;2.80;;;33.80;29.80;;;;;;5047075;28;20528;-85
2023/05/28 10:05:16;;;;;;;3.00;2.37;;;34.20;29.30;;;;;;5032320;28;20533;-84
2023/05/28 10:07:55;;;;;;;2.97;2.50;;;32.90;30.20;;;;;;5051901;28;20449;-84
2023/05/28 10:10:34;;;;;;;3.00;2.63;;;33.30;30.00;;;;;;5051858;28;20467;-85
2023/05/28 10:13:16;;;;;;;2.40;2.30;;;32.90;30.10;;;;;;5041949;28;20490;-84
2023/05/28 10:15:45;;;;;;;2.67;2.37;;;32.50;30.30;;;;;;5041255;28;20476;-84
2023/05/28 10:18:30;;;;;;;2.97;2.67;;;32.40;30.00;;;;;;5035540;28;20858;-87
2023/05/28 10:21:12;;;;;;;4.03;3.03;;;32.00;30.00;;;;;;5034430;28;20453;-86
2023/05/28 10:23:56;;;;;;;3.00;2.70;;;32.40;30.10;;;;;;5025471;28;20933;-84
2023/05/28 10:26:53;;;;;;;3.07;2.77;;;32.30;29.90;;;;;;5048908;22;20494;-83
2023/05/28 10:29:50;;;;;;;2.83;2.60;;;32.10;30.10;;;;;;5008124;28;20446;-86
2023/05/28 10:32:22;;;;;;;2.83;2.50;;;32.00;30.00;;;;;;5005327;28;20462;-85
2023/05/28 10:35:06;;;;;;;2.77;2.37;;;32.10;29.80;;;;;;5008651;28;20454;-84
2023/05/28 10:37:40;;;;;;;3.50;2.60;;;32.30;29.30;;;;;;5001740;28;20585;-85
2023/05/28 10:40:25;;;;;;;3.23;2.63;;;31.80;29.80;;;;;;4993400;28;20526;-86
2023/05/28 10:42:59;;;;;;;2.70;2.47;;;32.60;29.70;;;;;;4999238;28;20458;-86
2023/05/28 10:45:50;;;;;;;2.50;2.30;;;33.00;29.10;;;;;;4987365;28;20517;-85
2023/05/28 10:49:16;;;;;;;2.47;2.27;;;32.90;28.70;;;;;;4981926;28;20445;-85
2023/05/28 10:52:25;;;;;;;2.43;2.23;;;32.50;28.30;;;;;;4986898;28;20446;-85
2023/05/28 10:55:17;;;;;;;3.00;2.30;;;32.10;28.60;;;;;;4994220;28;20458;-85
2023/05/28 10:58:18;;;;;;;;;;;;;;;;;;;;;
2023/05/28 11:01:27;;;;;;;3.97;2.57;;;32.00;29.20;;;;;;4986941;28;20502;-86
2023/05/28 11:04:39;;;;;;;2.80;2.60;;;32.70;28.50;;;;;;4992522;28;20487;-86
2023/05/28 11:07:15;;;;;;;3.00;2.80;;;33.30;28.00;;;;;;4984053;28;20478;-85
2023/05/28 11:10:02;;;;;;;2.50;2.30;;;32.70;27.10;;;;;;4985545;28;20930;-86
2023/05/28 11:13:09;;;;;;;2.70;2.50;;;32.20;27.30;;;;;;4991189;28;20760;-86
2023/05/28 11:16:07;;;;;;;2.93;2.73;;;31.70;27.80;;;;;;4976840;28;20471;-84
2023/05/28 11:19:03;;;;;;;3.20;2.80;;;33.30;27.90;;;;;;4982281;28;20478;-85
2023/05/28 11:21:48;;;;;;;3.27;2.73;;;33.80;27.30;;;;;;4993990;28;20463;-85
2023/05/28 11:24:39;;;;;;;3.83;3.10;;;33.10;27.70;;;;;;5001358;28;20447;-84
2023/05/28 11:27:57;;;;;;;2.43;2.23;;;33.30;27.20;;;;;;4990231;28;20473;-87
2023/05/28 11:30:52;;;;;;;2.60;2.37;;;33.00;27.70;;;;;;4967077;28;20450;-85
2023/05/28 11:36:25;;;;;;;3.00;2.70;;;32.30;27.80;;;;;;4988882;28;20486;-85
2023/05/28 11:39:26;;;;;;;2.80;2.50;;;31.60;28.20;;;;;;4991398;28;20586;-86
2023/05/28 11:42:34;;;;;;;2.50;2.30;;;32.10;28.20;;;;;;4965849;28;21321;-84
2023/05/28 11:48:15;;;;;;;3.17;2.73;;;32.30;27.90;;;;;;1481054;26;20474;-83
2023/05/28 11:51:03;;;;;;;3.03;2.73;;;32.70;28.10;;;;;;5026576;28;20442;-84
2023/05/28 11:54:04;;;;;;;3.80;2.97;;;33.10;27.90;;;;;;5016195;28;20508;-85
2023/05/28 11:57:08;;;;;;;2.53;2.30;;;33.90;27.10;;;;;;5010528;28;20497;-83
2023/05/28 12:00:15;;;;;;;3.70;2.77;;;33.80;27.50;;;;;;5013481;28;20501;-86
2023/05/28 12:02:55;;;;;;;3.30;2.50;;;33.00;27.60;;;;;;5013976;28;20438;-85
2023/05/28 12:09:11;;;;;;;2.83;2.53;;;33.10;27.30;;;;;;5014683;28;20454;-82
2023/05/28 12:11:41;;;;;;;2.30;2.10;;;32.20;27.50;;;;;;5008715;28;20534;-84
2023/05/28 12:14:18;;;;;;;3.30;2.80;;;31.50;28.10;;;;;;5018411;28;20470;-84
2023/05/28 12:16:55;;;;;;;3.10;2.70;;;31.50;28.30;;;;;;5023721;28;20461;-84
2023/05/28 12:19:46;;;;;;;2.67;2.47;;;31.80;28.40;;;;;;5013952;28;20552;-84
2023/05/28 12:22:19;;;;;;;2.50;2.30;;;31.60;28.30;;;;;;5013184;28;20512;-86
2023/05/28 12:25:00;;;;;;;3.20;2.90;;;31.50;28.30;;;;;;5023201;28;20480;-84
2023/05/28 12:27:39;;;;;;;2.30;2.00;;;32.50;28.20;;;;;;5008547;28;20457;-84
2023/05/28 12:30:16;;;;;;;3.80;2.70;;;32.80;28.00;;;;;;5014162;28;20486;-86
2023/05/28 12:32:54;;;;;;;3.73;2.77;;;33.10;27.60;;;;;;5017346;28;20482;-85
2023/05/28 12:35:33;;;;;;;2.73;2.50;;;33.00;27.30;;;;;;5015861;28;20450;-85
2023/05/28 12:38:14;;;;;;;2.53;2.33;;;33.20;27.60;;;;;;5016981;28;20442;-85
2023/05/28 12:40:46;;;;;;;4.77;4.10;;;33.20;27.40;;;;;;5012501;28;20488;-82
2023/05/28 12:43:23;;;;;;;3.10;2.90;;;32.40;28.00;;;;;;5021112;28;20458;-84
2023/05/28 12:45:55;;;;;;;3.40;3.10;;;32.90;27.50;;;;;;5018487;28;20473;-85
2023/05/28 12:48:31;;;;;;;4.33;4.00;;;32.10;28.20;;;;;;5027010;28;20495;-83
2023/05/28 12:51:28;;;;;;;3.70;3.00;;;32.10;28.30;;;;;;5020382;28;20454;-84
2023/05/28 12:54:05;;;;;;;3.23;2.93;;;32.40;27.90;;;;;;5023594;28;20541;-86
2023/05/28 12:56:43;;;;;;;3.77;3.00;;;31.90;28.40;;;;;;5003932;28;20466;-86
2023/05/28 12:59:33;;;;;;;3.33;3.03;;;32.20;29.30;;;;;;5020119;28;20446;-84
2023/05/28 13:02:06;;;;;;;3.40;3.10;;;32.40;28.90;;;;;;5018179;28;20537;-83
2023/05/28 13:04:38;;;;;;;3.90;3.50;;;31.80;29.40;;;;;;5024346;28;20470;-84
2023/05/28 13:07:25;;;;;;;2.80;2.40;;;32.20;29.30;;;;;;5021853;28;20571;-86
2023/05/28 13:10:07;;;;;;;;;;;;;;;;;;;;;
2023/05/28 13:13:12;;;;;;;3.70;2.90;;;32.60;29.40;;;;;;5023370;28;20458;-84
2023/05/28 13:16:00;;;;;;;3.43;2.97;;;31.80;29.00;;;;;;5035112;28;20488;-85
2023/05/28 13:18:57;;;;;;;3.60;2.77;;;31.70;29.80;;;;;;5031687;28;20442;-84
2023/05/28 13:21:26;;;;;;;3.20;2.70;;;31.80;29.80;;;;;;5032667;28;20572;-83
2023/05/28 13:23:55;;;;;;;3.13;2.67;;;31.60;30.00;;;;;;5029652;28;20462;-86
2023/05/28 13:26:34;;;;;;;3.00;2.70;;;31.20;30.00;;;;;;5017749;28;20486;-85
2023/05/28 13:29:06;;;;;;;2.70;2.40;;;31.00;30.40;;;;;;5013010;28;20569;-85
2023/05/28 13:31:37;;;;;;;3.70;3.17;;;31.50;30.50;;;;;;5015426;28;21148;-86
2023/05/28 13:34:07;;;;;;;2.90;2.60;;;31.60;29.40;;;;;;5018268;28;20455;-85
2023/05/28 13:36:42;;;;;;;3.27;2.90;;;31.30;29.90;;;;;;5016932;28;20552;-85
2023/05/28 13:39:26;;;;;;;;;;;;;;;;;;;;;
2023/05/28 13:42:25;;;;;;;3.10;2.63;;;31.30;29.70;;;;;;5001914;28;20467;-84
2023/05/28 13:45:11;;;;;;;3.27;2.70;;;31.20;29.00;;;;;;5008725;28;20504;-85
2023/05/28 13:47:59;;;;;;;3.30;2.80;;;30.70;29.80;;;;;;5009467;28;20474;-84
2023/05/28 13:50:34;;;;;;;2.60;2.40;;;30.40;30.50;;;;;;5014138;28;20442;-84
2023/05/28 13:53:31;;;;;;;3.33;3.00;;;30.30;31.80;;;;;;4935665;29;20457;-86
2023/05/28 13:56:05;;;;;;;4.10;2.60;;;30.10;31.90;;;;;;4910871;29;20914;-85
2023/05/28 13:58:45;;;;;;;4.20;2.53;;;30.00;32.60;;;;;;4915242;29;20450;-85
2023/05/28 14:01:23;;;;;;;4.07;3.33;;;29.80;31.80;;;;;;4934855;28;20446;-85
2023/05/28 14:04:02;;;;;;;5.20;2.60;;;30.10;30.90;;;;;;4922777;29;20468;-84
2023/05/28 14:06:43;;;;;;;2.77;2.47;;;30.00;30.70;;;;;;4944210;28;20615;-84
2023/05/28 14:09:16;;;;;;;4.50;2.70;;;29.60;31.00;;;;;;4924908;29;20454;-85